Terminal Aerodrome Forecast
Issued by NWS

Home | Current Version | Previous Version | Graphics & Text | Print | Product List | Glossary On
Versions: 1 2 3 4 5 6 7 8 9 10 11 12 13 14 15 16
000
FTUS43 KICT 212300
TAFSLN
TAF
KSLN 212322Z 2200/2224 14010KT P6SM SKC
     FM220500 18010KT P6SM SCT060
     FM221500 18015G24KT P6SM BKN060 OVC100=

USA.gov is the U.S. government's official web portal to all federal, state and local government web resources and services.